Pays
Station

 

Conditions  météo  pour  Oslo/Gardermoen  -  Norvège    Norvège

  
-8 °C
    
 
 

METAR pour Oslo/Gardermoen :

ENGM 202250Z 00000KT 9999 8000SW -SN FEW005 BKN021 M08/M10 Q1026

 

Voici le bulletin pour Oslo/Gardermoen - Norvège.
 
Le bulletin a été fait il y a 17 minutes, à 22:50 UTC .
Le vent était calme.
 
La température était de -8 °C, avec un point de rosée à -10 °C.
La pression atmosphérique était de 1026 hPa.
L'humidité relative était de 85.4%.
 
Il y avait 1 à 2/8ème de nébulosité à une hauteur de 152 mètres et 5 à 7/8ème de nébulosité à une hauteur de 640 mètres.
 
La visibilité globale était de supérieure à 10 kilomètres et 8.0 kilomètres.
 
Actuellement léger/legère neige.

 
 
 

Pays :   A   B   C   D   E   F   G   H   I   J   K   L   M   N   O   P   Q   R   S   T   U   V   W   Y   Z

 

Partenaires :  Info Météo avec Met'info
Météo Marine avec MeteoMarine.net
Infos Site  |  Infos Légales  |  Crédits  |  Confidentialité
Contactez-nous  |  Ajouter aux favoris
© 2013-2018 METAR - Tous droits réservés